Curtis, Texas
Current Conditions -  °F | °C
As of 3:55 AM on Sunday 21 Dec 2014 (Local Time) from KJAS Reporting Station
Moderate Fog Moderate Fog  
Wind Chill:   Ceiling: 500
Heat Index:   Visibility: 0.5mi
Dew Point:   Wind: 0mph
Humidity: 100%   Direction: NA
Pressure: 30.17"   Gusts: NA
Location:  30.9529°N, 94.0707°W
Report Text: KJAS 210955Z AUTO 00000KT 1/2SM FG VV005 02/02 A3017 RMK AO2 T00210021
Loading
Personal Weather Stations






























Interactive Weather Map New forecast layout! Learn more

10-Day Weather Forecast

Advertisements
Track Severe Weather on mobile